createdAt,value
2023-05-13T00:04:51.904Z,100339.97
2023-05-13T00:09:53.284Z,100338.72
2023-05-13T00:14:54.732Z,100332.28
2023-05-13T00:19:56.113Z,100314.13
2023-05-13T00:24:57.565Z,100318.19
2023-05-13T00:29:59.906Z,100325.94
2023-05-13T00:35:01.576Z,100318.59
2023-05-13T00:40:03.741Z,100320.25
2023-05-13T00:45:06.409Z,100333.47
2023-05-13T00:50:09.559Z,100335.72
2023-05-13T00:55:11.248Z,100336.38
2023-05-13T01:00:14.434Z,100338.09
2023-05-13T01:05:43.052Z,100328.41
2023-05-13T01:10:57.525Z,100341.59
2023-05-13T01:16:04.306Z,100337.25
2023-05-13T01:21:07.759Z,100332.31
2023-05-13T01:26:09.220Z,100338.09
2023-05-13T01:31:11.290Z,100339.63
2023-05-13T01:36:13.837Z,100323.88
2023-05-13T01:41:15.452Z,100334.88
2023-05-13T01:46:17.072Z,100327.16
2023-05-13T01:51:18.745Z,100332.69
2023-05-13T01:56:21.243Z,100330.53
2023-05-13T02:01:23.065Z,100339.97
2023-05-13T02:06:24.847Z,100334.38
2023-05-13T02:11:26.221Z,100327.63
2023-05-13T02:16:27.662Z,100334.38
2023-05-13T02:21:29.875Z,100327.31
2023-05-13T02:26:31.427Z,100331.69
2023-05-13T02:31:33.091Z,100317.81
2023-05-13T02:36:34.493Z,100338.50
2023-05-13T02:41:37.276Z,100327.09
2023-05-13T02:46:38.671Z,100326.97
2023-05-13T02:51:40.037Z,100330.75
2023-05-13T02:56:41.580Z,100334.44
2023-05-13T03:01:43.103Z,100335.00
2023-05-13T03:06:44.863Z,100327.09
2023-05-13T03:11:46.569Z,100325.16
2023-05-13T03:16:47.954Z,100318.03
2023-05-13T03:21:49.708Z,100328.84
2023-05-13T03:26:51.290Z,100326.06
2023-05-13T03:31:53.755Z,100334.50
2023-05-13T03:36:55.238Z,100339.88
2023-05-13T03:41:56.610Z,100335.22
2023-05-13T03:46:58.228Z,100335.34
2023-05-13T03:51:59.647Z,100335.66
2023-05-13T03:57:01.219Z,100335.56
2023-05-13T04:02:05.084Z,100349.19
2023-05-13T04:07:06.507Z,100335.84
2023-05-13T04:12:08.196Z,100345.28
2023-05-13T04:17:09.835Z,100341.34
2023-05-13T04:22:11.526Z,100358.22
2023-05-13T04:27:13.113Z,100354.00
2023-05-13T04:32:17.907Z,100351.47
2023-05-13T04:37:19.509Z,100376.81
2023-05-13T04:42:20.943Z,100365.81
2023-05-13T04:47:22.860Z,100369.34
2023-05-13T04:52:24.389Z,100381.03
2023-05-13T04:57:25.804Z,100363.59
2023-05-13T05:02:30.188Z,100373.56
2023-05-13T05:07:34.361Z,100381.69
2023-05-13T05:12:36.676Z,100375.38
2023-05-13T05:17:38.397Z,100395.91
2023-05-13T05:22:41.870Z,100393.91
2023-05-13T05:27:43.291Z,100377.06
2023-05-13T05:32:44.808Z,100385.88
2023-05-13T05:37:46.595Z,100404.91
2023-05-13T05:42:48.039Z,100385.34
2023-05-13T05:47:50.432Z,100397.56
2023-05-13T05:52:52.119Z,100404.03
2023-05-13T05:57:53.443Z,100419.91
2023-05-13T06:02:55.151Z,100422.50
2023-05-13T06:07:56.744Z,100408.81
2023-05-13T06:12:58.784Z,100403.09
2023-05-13T06:18:00.260Z,100420.13
2023-05-13T06:23:01.685Z,100436.41
2023-05-13T06:28:03.588Z,100394.19
2023-05-13T06:33:05.560Z,100418.69
2023-05-13T06:38:07.325Z,100426.59
2023-05-13T06:43:08.951Z,100434.66
2023-05-13T06:48:10.579Z,100435.06
2023-05-13T06:53:12.749Z,100434.78
2023-05-13T06:58:14.344Z,100434.09
2023-05-13T07:03:16.445Z,100421.03
2023-05-13T07:08:19.279Z,100384.75
2023-05-13T07:13:21.047Z,100431.16
2023-05-13T07:18:22.568Z,100429.25
2023-05-13T07:23:25.358Z,100409.41
2023-05-13T07:28:27.110Z,100426.06
2023-05-13T07:33:28.574Z,100417.00
2023-05-13T07:38:29.963Z,100421.72
2023-05-13T07:43:35.156Z,100422.66
2023-05-13T07:48:36.814Z,100429.91
2023-05-13T07:53:38.452Z,100423.84
2023-05-13T07:58:39.847Z,100433.09
2023-05-13T08:03:41.375Z,100425.56
2023-05-13T08:08:42.854Z,100416.75
2023-05-13T08:13:44.426Z,100426.69
2023-05-13T08:18:45.824Z,100430.78
2023-05-13T08:23:47.496Z,100428.31
2023-05-13T08:28:52.192Z,100412.66
2023-05-13T08:33:56.076Z,100410.97
2023-05-13T08:38:57.518Z,100407.91
2023-05-13T08:44:00.357Z,100399.72
2023-05-13T08:49:02.464Z,100411.25
2023-05-13T08:54:04.696Z,100396.19
2023-05-13T08:59:06.167Z,100414.81
2023-05-13T09:04:09.811Z,100403.13
2023-05-13T09:09:11.097Z,100410.63
2023-05-13T09:14:13.677Z,100404.91
2023-05-13T09:19:15.393Z,100400.09
2023-05-13T09:24:21.616Z,100405.34
2023-05-13T09:29:24.401Z,100401.75
2023-05-13T09:34:30.977Z,100392.84
2023-05-13T09:39:37.976Z,100398.16
2023-05-13T09:44:39.358Z,100389.91
2023-05-13T09:49:41.890Z,100389.47
2023-05-13T09:54:44.335Z,100388.50
2023-05-13T09:59:45.676Z,100374.31
2023-05-13T10:04:47.208Z,100380.81
2023-05-13T10:09:48.570Z,100374.97
2023-05-13T10:14:51.958Z,100366.53
2023-05-13T10:19:54.832Z,100365.09
2023-05-13T10:25:00.213Z,100362.41
2023-05-13T10:30:04.035Z,100354.94
2023-05-13T10:35:14.906Z,100360.25
2023-05-13T10:40:44.602Z,100357.34
2023-05-13T10:45:58.165Z,100347.28
2023-05-13T10:51:07.867Z,100323.28
2023-05-13T10:56:09.170Z,100319.53
2023-05-13T11:01:28.153Z,100329.56
2023-05-13T11:06:34.318Z,100332.56
2023-05-13T11:11:37.023Z,100320.66
2023-05-13T11:16:38.582Z,100318.59
2023-05-13T11:21:40.756Z,100306.91
2023-05-13T11:26:48.083Z,100325.06
2023-05-13T11:31:57.813Z,100336.25
2023-05-13T11:37:04.044Z,100326.84
2023-05-13T11:42:08.689Z,100323.06
2023-05-13T11:47:10.080Z,100322.47
2023-05-13T11:52:15.620Z,100320.81
2023-05-13T11:57:36.929Z,100310.69
2023-05-13T12:02:40.420Z,100318.59
2023-05-13T12:07:43.084Z,100324.31
2023-05-13T12:12:45.882Z,100316.81
2023-05-13T12:17:48.326Z,100303.53
2023-05-13T12:22:52.358Z,100319.34
2023-05-13T12:27:53.823Z,100338.84
2023-05-13T12:32:58.817Z,100333.25
2023-05-13T12:38:05.085Z,100341.50
2023-05-13T12:43:06.465Z,100330.38
2023-05-13T12:48:08.160Z,100346.47
2023-05-13T12:53:09.721Z,100351.84
2023-05-13T12:58:11.234Z,100352.53
2023-05-13T13:03:12.764Z,100367.50
2023-05-13T13:08:14.142Z,100362.66
2023-05-13T13:13:15.814Z,100383.69
2023-05-13T13:18:18.246Z,100380.59
2023-05-13T13:23:20.320Z,100373.31
2023-05-13T13:28:21.623Z,100358.97
2023-05-13T13:33:23.142Z,100356.16
2023-05-13T13:38:24.566Z,100373.13
2023-05-13T13:43:25.939Z,100336.56
2023-05-13T13:48:27.407Z,100348.13
2023-05-13T13:53:28.818Z,100329.31
2023-05-13T13:58:30.152Z,100327.91
2023-05-13T14:03:31.733Z,100320.72
2023-05-13T14:08:33.199Z,100312.91
2023-05-13T14:13:34.573Z,100313.44
2023-05-13T14:18:35.896Z,100307.22
2023-05-13T14:23:38.385Z,100327.06
2023-05-13T14:28:39.670Z,100299.28
2023-05-13T14:33:41.139Z,100306.09
2023-05-13T14:38:43.570Z,100321.84
2023-05-13T14:43:48.376Z,100291.56
2023-05-13T14:48:49.758Z,100319.78
2023-05-13T14:53:51.550Z,100317.84
2023-05-13T14:58:53.248Z,100311.47
2023-05-13T15:03:54.564Z,100302.66
2023-05-13T15:08:56.368Z,100299.09
2023-05-13T15:13:57.825Z,100288.75
2023-05-13T15:18:59.170Z,100280.97
2023-05-13T15:24:00.580Z,100289.19
2023-05-13T15:29:02.013Z,100284.25
2023-05-13T15:34:03.426Z,100278.41
2023-05-13T15:39:04.906Z,100303.38
2023-05-13T15:44:06.243Z,100278.94
2023-05-13T15:49:07.574Z,100296.09
2023-05-13T15:54:08.908Z,100280.22
2023-05-13T15:59:10.317Z,100290.69
2023-05-13T16:04:11.704Z,100272.09
2023-05-13T16:09:13.262Z,100281.16
2023-05-13T16:14:14.615Z,100246.53
2023-05-13T16:19:15.958Z,100272.22
2023-05-13T16:24:17.277Z,100265.31
2023-05-13T16:29:18.647Z,100267.38
2023-05-13T16:34:19.956Z,100270.00
2023-05-13T16:39:21.246Z,100259.19
2023-05-13T16:44:22.621Z,100271.88
2023-05-13T16:49:24.540Z,100262.56
2023-05-13T16:54:26.072Z,100271.13
2023-05-13T16:59:28.217Z,100262.94
2023-05-13T17:04:29.660Z,100260.69
2023-05-13T17:09:31.082Z,100253.63
2023-05-13T17:14:32.415Z,100260.69
2023-05-13T17:19:33.940Z,100250.63
2023-05-13T17:24:35.845Z,100239.91
2023-05-13T17:29:37.386Z,100239.00
2023-05-13T17:34:38.809Z,100257.16
2023-05-13T17:39:40.186Z,100249.81
2023-05-13T17:44:41.614Z,100254.91
2023-05-13T17:49:42.931Z,100246.81
2023-05-13T17:54:44.227Z,100247.66
2023-05-13T17:59:45.598Z,100241.41
2023-05-13T18:04:46.948Z,100260.78
2023-05-13T18:09:49.930Z,100221.47
2023-05-13T18:14:52.016Z,100263.50
2023-05-13T18:19:53.309Z,100276.81
2023-05-13T18:24:54.658Z,100278.56
2023-05-13T18:29:56.034Z,100256.31
2023-05-13T18:34:57.496Z,100285.47
2023-05-13T18:39:59.275Z,100292.41
2023-05-13T18:45:00.656Z,100299.03
2023-05-13T18:50:01.978Z,100291.34
2023-05-13T18:55:05.004Z,100298.44
2023-05-13T19:00:07.099Z,100318.16
2023-05-13T19:05:08.630Z,100320.72
2023-05-13T19:10:10.145Z,100301.25
2023-05-13T19:15:11.631Z,100315.78
2023-05-13T19:20:13.285Z,100334.97
2023-05-13T19:25:14.670Z,100321.03
2023-05-13T19:30:16.141Z,100321.88
2023-05-13T19:35:17.578Z,100314.34
2023-05-13T19:40:18.990Z,100305.97
2023-05-13T19:45:20.829Z,100335.47
2023-05-13T19:50:22.415Z,100331.44
2023-05-13T19:55:24.373Z,100344.13
2023-05-13T20:00:25.880Z,100339.56
2023-05-13T20:05:27.366Z,100338.25
2023-05-13T20:10:29.097Z,100304.44
2023-05-13T20:15:31.282Z,100332.84
2023-05-13T20:20:32.608Z,100337.94
2023-05-13T20:25:33.908Z,100355.06
2023-05-13T20:30:35.430Z,100347.34
2023-05-13T20:35:39.921Z,100331.34
2023-05-13T20:40:41.291Z,100355.25
2023-05-13T20:45:43.113Z,100345.34
2023-05-13T20:50:44.656Z,100333.19
2023-05-13T20:55:46.016Z,100327.66
2023-05-13T21:00:47.476Z,100327.50
2023-05-13T21:05:48.850Z,100350.00
2023-05-13T21:10:50.199Z,100339.91
2023-05-13T21:15:51.889Z,100332.34
2023-05-13T21:20:53.369Z,100338.25
2023-05-13T21:25:54.772Z,100333.34
2023-05-13T21:30:56.089Z,100346.66
2023-05-13T21:35:57.456Z,100339.41
2023-05-13T21:40:59.301Z,100336.22
2023-05-13T21:46:00.653Z,100329.66
2023-05-13T21:51:02.083Z,100319.38
2023-05-13T21:56:03.918Z,100320.88
2023-05-13T22:01:05.318Z,100286.38
2023-05-13T22:06:06.842Z,100326.09
2023-05-13T22:11:08.182Z,100314.66
2023-05-13T22:16:09.628Z,100331.78
2023-05-13T22:21:11.094Z,100328.44
2023-05-13T22:26:12.453Z,100310.94
2023-05-13T22:31:14.969Z,100323.06
2023-05-13T22:36:16.289Z,100336.84
2023-05-13T22:41:20.623Z,100333.47
2023-05-13T22:46:22.022Z,100330.09
2023-05-13T22:51:23.394Z,100327.91
2023-05-13T22:56:24.883Z,100308.88
2023-05-13T23:01:26.283Z,100325.00
2023-05-13T23:06:27.712Z,100307.47
2023-05-13T23:11:28.976Z,100309.09
2023-05-13T23:16:30.399Z,100313.75
2023-05-13T23:21:32.298Z,100316.84
2023-05-13T23:26:33.661Z,100302.31
2023-05-13T23:31:35.219Z,100313.06
2023-05-13T23:36:36.580Z,100311.81
2023-05-13T23:41:38.002Z,100299.50
2023-05-13T23:46:39.410Z,100295.59
2023-05-13T23:51:40.827Z,100305.34
2023-05-13T23:56:42.194Z,100284.59
